Time;durP1;ratioP1;P1;durP2;ratioP2;P2;SDS_P1;SDS_P2;PMS_P1;PMS_P2;Temp;Humidity;BMP_temperature;BMP_pressure;BME280_temperature;BME280_humidity;BME280_pressure;Samples;Min_cycle;Max_cycle;Signal;HPM_P1;HPM_P2
2021/11/12 00:04:26;;;;;;;36.20;21.52;;;5.10;84.60;;;;;;5080677;28;20108;-79
2021/11/12 00:12:46;;;;;;;35.03;23.45;;;5.10;85.10;;;;;;5048846;28;20021;-79
2021/11/12 00:15:12;;;;;;;35.80;23.27;;;5.00;85.70;;;;;;5057989;28;20025;-79
2021/11/12 00:17:40;;;;;;;36.15;22.50;;;5.00;85.30;;;;;;5069248;28;20096;-79
2021/11/12 00:20:07;;;;;;;35.15;22.70;;;5.10;85.20;;;;;;5078717;28;20019;-79
2021/11/12 00:22:34;;;;;;;37.00;23.13;;;5.00;85.10;;;;;;5080284;28;20024;-79
2021/11/12 00:25:02;;;;;;;31.75;21.77;;;5.10;84.90;;;;;;5079535;28;20099;-79
2021/11/12 00:27:29;;;;;;;34.53;22.02;;;5.00;84.40;;;;;;5080056;28;20055;-79
2021/11/12 00:30:10;;;;;;;30.33;21.35;;;5.00;84.20;;;;;;5079840;28;20438;-79
2021/11/12 00:45:31;;;;;;;30.55;20.42;;;5.00;84.60;;;;;;5079543;28;20031;-79
2021/11/12 00:48:09;;;;;;;31.05;21.75;;;5.00;84.40;;;;;;5079678;28;20028;-79
2021/11/12 00:55:29;;;;;;;32.55;21.70;;;5.00;85.10;;;;;;5079002;28;20047;-79
2021/11/12 00:57:56;;;;;;;33.78;22.50;;;4.90;84.70;;;;;;5079620;28;20115;-79
2021/11/12 01:00:24;;;;;;;34.42;22.30;;;4.90;84.40;;;;;;5079250;28;20070;-79
2021/11/12 01:02:50;;;;;;;36.85;23.73;;;4.90;84.20;;;;;;5079358;28;20023;-79
2021/11/12 01:05:16;;;;;;;32.92;23.10;;;4.90;84.00;;;;;;5078705;28;20410;-79
2021/11/12 01:07:43;;;;;;;33.10;22.73;;;4.90;84.20;;;;;;5079347;28;20078;-79
2021/11/12 01:10:11;;;;;;;32.90;20.75;;;4.80;84.00;;;;;;5078845;28;20031;-79
2021/11/12 01:12:38;;;;;;;34.90;21.80;;;4.80;83.90;;;;;;5079178;28;20028;-79
2021/11/12 01:15:08;;;;;;;36.85;22.17;;;4.80;83.80;;;;;;5078923;28;20024;-79
2021/11/12 01:17:34;;;;;;;36.30;23.58;;;4.80;83.70;;;;;;5079250;28;20467;-79
2021/11/12 01:20:02;;;;;;;39.78;26.48;;;4.70;84.20;;;;;;5078893;28;20027;-79
2021/11/12 01:22:28;;;;;;;42.53;27.52;;;4.80;86.40;;;;;;5077546;28;20029;-79
2021/11/12 01:24:54;;;;;;;39.83;24.73;;;4.80;87.20;;;;;;5078398;28;20025;-78
2021/11/12 01:27:20;;;;;;;39.80;24.15;;;4.70;86.10;;;;;;5079111;28;20510;-79
2021/11/12 01:29:46;;;;;;;41.72;25.52;;;4.80;85.50;;;;;;5078763;28;20021;-79
2021/11/12 01:32:21;;;;;;;37.47;25.83;;;4.70;85.30;;;;;;5077334;28;20028;-79
2021/11/12 01:34:54;;;;;;;37.63;24.75;;;4.70;85.80;;;;;;5078469;28;20095;-79
2021/11/12 01:37:23;;;;;;;37.40;24.23;;;4.70;85.60;;;;;;5078721;28;20076;-79
2021/11/12 01:39:53;;;;;;;35.13;23.65;;;4.70;85.10;;;;;;5078261;28;20059;-79
2021/11/12 01:42:21;;;;;;;36.95;22.48;;;4.70;85.00;;;;;;5078362;28;20434;-79
2021/11/12 01:44:52;;;;;;;33.15;21.67;;;4.70;84.70;;;;;;5078472;28;20024;-79
2021/11/12 01:47:26;;;;;;;35.67;23.92;;;4.70;84.70;;;;;;5078707;28;20035;-79
2021/11/12 01:49:57;;;;;;;38.80;23.73;;;4.70;84.70;;;;;;5078410;28;20017;-79
2021/11/12 01:52:37;;;;;;;35.40;24.35;;;4.70;85.60;;;;;;5078328;28;20020;-79
2021/11/12 01:57:38;;;;;;;34.08;23.17;;;4.70;86.00;;;;;;5078350;28;20032;-79
2021/11/12 02:00:11;;;;;;;35.20;24.05;;;4.70;86.50;;;;;;5078061;28;20454;-79
2021/11/12 02:02:36;;;;;;;33.67;23.08;;;4.70;87.30;;;;;;5078148;28;20055;-79
2021/11/12 02:05:03;;;;;;;35.38;23.23;;;4.80;87.20;;;;;;5078093;28;20024;-79
2021/11/12 02:07:31;;;;;;;33.28;22.17;;;4.70;87.00;;;;;;5078091;28;20035;-79
2021/11/12 02:09:57;;;;;;;33.20;22.38;;;4.70;86.60;;;;;;5077517;28;20042;-79
2021/11/12 02:12:33;;;;;;;34.67;23.42;;;4.70;86.30;;;;;;5077992;28;20429;-79
2021/11/12 02:14:59;;;;;;;33.88;23.35;;;4.70;86.20;;;;;;5076559;28;20081;-79
2021/11/12 02:17:30;;;;;;;34.70;22.38;;;4.70;86.70;;;;;;5077309;28;20399;-79
2021/11/12 02:20:13;;;;;;;33.85;21.83;;;4.70;86.50;;;;;;5077761;28;20910;-79
2021/11/12 02:22:40;;;;;;;29.48;20.55;;;4.70;86.20;;;;;;5077853;28;20028;-79
2021/11/12 02:25:13;;;;;;;32.55;21.00;;;4.70;85.80;;;;;;5077274;28;20020;-79
2021/11/12 02:27:52;;;;;;;;;;;4.70;85.50;;;;;;5078391;28;20051;-79
2021/11/12 02:30:29;;;;;;;30.80;21.42;;;4.70;85.20;;;;;;5076381;28;19905;-79
2021/11/12 02:33:08;;;;;;;36.10;23.45;;;4.70;85.00;;;;;;5077637;28;20028;-79
2021/11/12 02:35:38;;;;;;;36.83;24.10;;;4.60;85.30;;;;;;5076326;28;20024;-79
2021/11/12 02:38:06;;;;;;;38.22;24.60;;;4.70;85.20;;;;;;5077251;28;20040;-79
2021/11/12 02:40:33;;;;;;;39.38;25.42;;;4.70;85.40;;;;;;5077278;28;20467;-79
2021/11/12 02:42:59;;;;;;;40.70;25.40;;;4.60;85.90;;;;;;5077390;28;20067;-79
2021/11/12 02:45:25;;;;;;;42.65;26.05;;;4.60;86.10;;;;;;5077495;28;20020;-79
2021/11/12 02:47:52;;;;;;;37.53;24.50;;;4.60;86.00;;;;;;5077291;28;20028;-79
2021/11/12 02:50:19;;;;;;;35.53;25.10;;;4.60;85.70;;;;;;5077343;28;20016;-79
2021/11/12 02:52:48;;;;;;;35.85;24.70;;;4.60;85.50;;;;;;5077561;28;20079;-79
2021/11/12 02:55:15;;;;;;;36.05;24.40;;;4.60;85.50;;;;;;5076963;28;20031;-79
2021/11/12 02:57:42;;;;;;;33.38;23.45;;;4.60;85.70;;;;;;5077624;28;20391;-79
2021/11/12 03:00:11;;;;;;;35.53;23.85;;;4.60;85.40;;;;;;5077326;28;20055;-79
2021/11/12 03:02:37;;;;;;;35.55;23.23;;;4.60;85.10;;;;;;5077356;28;20028;-79
2021/11/12 03:05:04;;;;;;;33.35;22.35;;;4.50;85.00;;;;;;5077321;28;20021;-79
2021/11/12 03:07:30;;;;;;;32.35;21.50;;;4.60;85.00;;;;;;5077309;28;20552;-79
2021/11/12 03:09:56;;;;;;;34.58;24.13;;;4.50;84.70;;;;;;5076789;28;20046;-79
2021/11/12 03:12:22;;;;;;;30.60;22.20;;;4.50;84.80;;;;;;5077426;28;20021;-79
2021/11/12 03:14:49;;;;;;;38.70;24.13;;;4.50;84.90;;;;;;5077180;28;20063;-79
2021/11/12 03:17:15;;;;;;;42.42;25.10;;;4.50;85.10;;;;;;5077522;28;20031;-79
2021/11/12 03:19:43;;;;;;;37.22;24.88;;;4.50;85.10;;;;;;5077274;28;20459;-79
2021/11/12 03:22:12;;;;;;;34.22;23.25;;;4.50;85.00;;;;;;5077273;28;20399;-79
2021/11/12 03:25:02;;;;;;;38.13;25.75;;;4.40;84.80;;;;;;5077022;28;20052;-79
2021/11/12 05:13:15;;;;;;;36.10;22.38;;;4.10;87.80;;;;;;5079390;28;20016;-79
2021/11/12 05:56:31;;;;;;;31.75;20.90;;;3.90;88.40;;;;;;5078251;28;20031;-78
2021/11/12 05:58:57;;;;;;;31.00;21.35;;;3.90;88.30;;;;;;5078115;28;20402;-79
2021/11/12 06:01:23;;;;;;;29.92;20.73;;;3.90;88.20;;;;;;5078367;28;20059;-79
2021/11/12 06:03:49;;;;;;;28.70;20.60;;;3.90;87.90;;;;;;5078010;28;20037;-79
2021/11/12 06:06:15;;;;;;;30.40;21.85;;;3.90;87.60;;;;;;5076678;28;20119;-79
2021/11/12 06:08:41;;;;;;;28.00;19.65;;;3.90;87.40;;;;;;5077853;28;20020;-79
2021/11/12 06:11:08;;;;;;;31.00;22.27;;;3.90;87.20;;;;;;5077779;28;20024;-79
2021/11/12 06:13:34;;;;;;;27.95;20.80;;;3.90;87.40;;;;;;5077854;28;20020;-78
2021/11/12 06:16:00;;;;;;;29.58;22.08;;;3.80;87.50;;;;;;5076586;28;20025;-78
2021/11/12 06:18:26;;;;;;;31.92;22.45;;;3.80;87.80;;;;;;5077853;28;20086;-79
2021/11/12 06:20:53;;;;;;;32.22;22.80;;;3.80;88.10;;;;;;5077851;28;20040;-78
2021/11/12 06:23:19;;;;;;;29.23;20.92;;;3.80;87.80;;;;;;5077861;28;20025;-79
2021/11/12 06:25:45;;;;;;;30.17;21.75;;;3.80;87.60;;;;;;5077466;28;20443;-79
2021/11/12 06:28:11;;;;;;;32.42;22.38;;;3.80;87.50;;;;;;5077623;28;20056;-78
2021/11/12 06:30:37;;;;;;;29.88;22.65;;;3.80;87.40;;;;;;5077783;28;20025;-78
2021/11/12 06:33:03;;;;;;;30.98;21.23;;;3.80;87.60;;;;;;5077470;28;20020;-78
2021/11/12 06:35:29;;;;;;;30.77;20.67;;;3.80;87.50;;;;;;5077927;28;20027;-79
2021/11/12 06:37:55;;;;;;;27.15;19.23;;;3.80;87.40;;;;;;5077322;28;20056;-78
2021/11/12 06:40:22;;;;;;;27.35;20.50;;;3.80;87.20;;;;;;5077314;28;20031;-78
2021/11/12 06:43:01;;;;;;;62.72;25.45;;;3.80;87.20;;;;;;5076195;28;20513;-78
2021/11/12 06:50:38;;;;;;;35.03;24.50;;;3.90;88.90;;;;;;5077410;28;20023;-79
2021/11/12 06:53:04;;;;;;;34.30;24.25;;;3.90;88.90;;;;;;5076181;28;20020;-79
2021/11/12 06:55:30;;;;;;;36.63;24.05;;;3.90;89.30;;;;;;5075641;28;20032;-78
2021/11/12 06:57:56;;;;;;;30.23;22.67;;;3.90;89.50;;;;;;5077462;28;20028;-79
2021/11/12 07:00:23;;;;;;;30.52;21.85;;;3.90;89.40;;;;;;5077326;28;20024;-79
2021/11/12 07:02:51;;;;;;;29.63;21.65;;;4.00;89.00;;;;;;5076857;28;20472;-79
2021/11/12 07:05:17;;;;;;;29.10;21.90;;;4.00;88.90;;;;;;5075937;28;20038;-78
2021/11/12 07:07:43;;;;;;;32.90;22.05;;;4.10;88.80;;;;;;5077254;28;20047;-78
2021/11/12 07:10:10;;;;;;;32.67;23.75;;;4.10;88.60;;;;;;5076869;28;20029;-78
2021/11/12 07:12:36;;;;;;;34.50;24.13;;;4.20;88.70;;;;;;5077290;28;20008;-78
2021/11/12 07:15:02;;;;;;;38.08;25.23;;;4.20;88.70;;;;;;5077235;28;20028;-78
2021/11/12 07:17:28;;;;;;;34.10;24.83;;;4.30;88.90;;;;;;5077378;28;20021;-78
2021/11/12 07:19:54;;;;;;;33.33;24.42;;;4.30;88.90;;;;;;5077088;28;20036;-79
2021/11/12 07:22:20;;;;;;;33.28;24.42;;;4.40;89.40;;;;;;5077121;28;20024;-78
2021/11/12 07:24:46;;;;;;;33.30;24.30;;;4.40;89.50;;;;;;5076536;28;20044;-79
2021/11/12 07:27:13;;;;;;;29.77;21.15;;;4.40;89.20;;;;;;5075721;28;20484;-78
2021/11/12 07:29:42;;;;;;;29.77;22.58;;;4.50;88.90;;;;;;5077016;28;20043;-78
2021/11/12 07:32:08;;;;;;;31.65;22.27;;;4.50;88.70;;;;;;5077015;28;20033;-78
2021/11/12 07:34:35;;;;;;;35.13;24.95;;;4.60;88.70;;;;;;5076978;28;20025;-78
2021/11/12 07:37:10;;;;;;;32.85;24.02;;;4.60;89.40;;;;;;5077072;28;20464;-78
2021/11/12 07:47:18;;;;;;;28.90;21.60;;;4.80;89.50;;;;;;5076817;28;20024;-78
2021/11/12 07:49:54;;;;;;;34.47;22.67;;;4.90;89.30;;;;;;5077044;28;20024;-78
2021/11/12 07:52:22;;;;;;;28.20;21.63;;;4.90;89.10;;;;;;5076790;28;20455;-78
2021/11/12 07:54:49;;;;;;;32.95;22.95;;;5.00;89.70;;;;;;5076693;28;20021;-78
2021/11/12 07:57:16;;;;;;;32.17;22.77;;;5.00;89.30;;;;;;5076762;28;20029;-79
2021/11/12 07:59:42;;;;;;;33.33;24.13;;;5.10;89.30;;;;;;5076968;28;20025;-78
2021/11/12 08:02:08;;;;;;;33.17;22.80;;;5.20;89.40;;;;;;5076591;28;20074;-78
2021/11/12 08:04:36;;;;;;;33.25;22.20;;;5.20;89.30;;;;;;5075507;28;20024;-78
2021/11/12 08:07:02;;;;;;;32.03;21.77;;;5.30;89.50;;;;;;5075313;28;20033;-78
2021/11/12 08:12:34;;;;;;;33.95;21.17;;;5.40;89.10;;;;;;5063501;28;20085;-78
2021/11/12 08:22:31;;;;;;;36.47;22.13;;;5.60;88.70;;;;;;5080083;28;20255;-78
2021/11/12 08:25:15;;;;;;;41.60;24.02;;;5.60;88.50;;;;;;5079766;28;20033;-78
2021/11/12 08:31:21;;;;;;;44.97;26.48;;;5.70;89.20;;;;;;5079971;28;20130;-78
2021/11/12 08:33:13;;;;;;;48.08;27.88;;;5.70;89.40;;;;;;5078969;28;20037;-78
2021/11/12 08:41:01;;;;;;;44.80;26.08;;;5.90;90.10;;;;;;5079344;28;20025;-78
2021/11/12 08:48:24;;;;;;;46.10;27.40;;;6.10;90.50;;;;;;5079598;28;20478;-78
2021/11/12 08:50:51;;;;;;;46.53;27.17;;;6.10;90.40;;;;;;5079503;28;20019;-78
2021/11/12 08:53:18;;;;;;;42.88;26.40;;;6.20;90.40;;;;;;5079683;28;20028;-78
2021/11/12 08:55:45;;;;;;;54.35;27.40;;;6.30;90.40;;;;;;5077915;28;20040;-79
2021/11/12 08:58:12;;;;;;;42.88;26.52;;;6.30;90.40;;;;;;5079576;28;20115;-78
2021/11/12 09:00:41;;;;;;;49.58;27.02;;;6.50;90.50;;;;;;5079309;28;20027;-78
2021/11/12 09:03:08;;;;;;;46.65;25.83;;;6.50;90.50;;;;;;5079383;28;20037;-78
2021/11/12 09:05:34;;;;;;;45.35;26.05;;;6.60;90.60;;;;;;5079195;28;20048;-78
2021/11/12 09:08:01;;;;;;;45.88;25.77;;;6.70;90.60;;;;;;5079295;28;20028;-78
2021/11/12 09:10:28;;;;;;;38.65;25.77;;;6.70;90.50;;;;;;5078916;28;20133;-78
2021/11/12 09:13:05;;;;;;;41.63;25.83;;;6.80;90.50;;;;;;5079237;28;20556;-78
2021/11/12 09:15:33;;;;;;;40.28;26.08;;;6.80;90.50;;;;;;5079377;28;20063;-78
2021/11/12 09:18:01;;;;;;;37.67;24.70;;;6.90;90.40;;;;;;5079016;28;20423;-78
2021/11/12 09:20:27;;;;;;;42.10;26.05;;;6.90;90.40;;;;;;5079085;28;20067;-78
2021/11/12 09:22:55;;;;;;;42.15;24.75;;;7.00;90.50;;;;;;5078885;28;20055;-78
2021/11/12 09:25:23;;;;;;;41.55;25.92;;;7.00;90.50;;;;;;5078644;28;20103;-78
2021/11/12 09:27:49;;;;;;;36.47;23.38;;;7.20;90.50;;;;;;5078241;28;20024;-78
2021/11/12 09:30:21;;;;;;;40.83;25.58;;;7.30;90.60;;;;;;5078809;28;20024;-78
2021/11/12 09:32:47;;;;;;;;;;;7.40;90.60;;;;;;5077664;28;20024;-78
2021/11/12 09:35:13;;;;;;;37.30;23.85;;;7.50;90.70;;;;;;5078792;28;20256;-78
2021/11/12 09:37:39;;;;;;;44.00;24.80;;;7.60;90.80;;;;;;5078541;28;20045;-77
2021/11/12 09:40:06;;;;;;;40.47;24.48;;;7.80;90.90;;;;;;5078270;28;20025;-77
2021/11/12 09:42:34;;;;;;;44.03;25.00;;;8.00;91.10;;;;;;5078463;28;20517;-77
2021/11/12 09:45:00;;;;;;;38.97;24.00;;;8.20;91.50;;;;;;5078602;28;20383;-77
2021/11/12 09:47:27;;;;;;;36.35;22.77;;;8.50;91.40;;;;;;5078431;28;20089;-77
2021/11/12 09:49:57;;;;;;;38.22;23.80;;;8.80;91.40;;;;;;5078384;28;20024;-78
2021/11/12 09:52:25;;;;;;;34.72;22.45;;;9.00;91.40;;;;;;5078085;28;20374;-77
2021/11/12 09:54:52;;;;;;;35.72;22.90;;;9.10;91.40;;;;;;5078051;28;20106;-77
2021/11/12 09:57:19;;;;;;;29.98;20.45;;;9.30;91.40;;;;;;5078142;28;20024;-77
2021/11/12 09:59:50;;;;;;;29.23;20.05;;;9.50;91.40;;;;;;5078449;28;20028;-77
2021/11/12 10:02:17;;;;;;;29.85;17.77;;;9.70;91.60;;;;;;5078003;28;20086;-77
2021/11/12 10:04:44;;;;;;;26.25;18.90;;;9.90;91.60;;;;;;5078159;28;20024;-77
2021/11/12 10:07:13;;;;;;;39.63;21.17;;;10.20;91.70;;;;;;5077879;28;20033;-77
2021/11/12 10:09:40;;;;;;;45.85;24.40;;;10.40;91.70;;;;;;5076425;28;20020;-77
2021/11/12 10:12:09;;;;;;;41.60;24.92;;;10.70;91.60;;;;;;5076419;28;20088;-77
2021/11/12 10:14:42;;;;;;;40.47;23.40;;;11.00;91.40;;;;;;5078381;28;20474;-77
2021/11/12 10:17:10;;;;;;;36.13;22.23;;;11.20;91.20;;;;;;5078303;28;20029;-78
2021/11/12 10:19:49;;;;;;;31.70;21.05;;;11.40;91.30;;;;;;5077784;28;20024;-77
2021/11/12 10:22:20;;;;;;;23.48;17.33;;;11.60;91.10;;;;;;5076442;28;20025;-77
2021/11/12 10:24:46;;;;;;;27.73;18.60;;;11.60;90.80;;;;;;5076047;28;20058;-78
2021/11/12 10:27:15;;;;;;;26.20;17.63;;;11.60;90.40;;;;;;5077889;28;20025;-77
2021/11/12 10:30:09;;;;;;;26.08;17.50;;;11.50;90.20;;;;;;5077679;28;20543;-78
2021/11/12 10:32:37;;;;;;;25.02;15.65;;;11.50;90.20;;;;;;5076596;28;20039;-77
2021/11/12 10:35:27;;;;;;;23.80;16.63;;;11.40;90.20;;;;;;5077934;28;20471;-78
2021/11/12 10:38:05;;;;;;;22.13;16.27;;;11.30;90.60;;;;;;5076286;28;20049;-78
2021/11/12 10:40:31;;;;;;;25.77;16.63;;;11.30;90.70;;;;;;5077338;28;20025;-77
2021/11/12 10:42:58;;;;;;;28.95;17.73;;;11.30;90.50;;;;;;5077529;28;20510;-77
2021/11/12 10:45:30;;;;;;;27.05;17.27;;;11.30;90.50;;;;;;5077892;28;20024;-77
2021/11/12 10:47:57;;;;;;;28.52;17.38;;;11.40;90.60;;;;;;5077644;28;20060;-77
2021/11/12 10:50:34;;;;;;;25.17;17.10;;;11.40;90.50;;;;;;5077420;28;20438;-77
2021/11/12 10:53:08;;;;;;;29.55;17.83;;;11.40;90.40;;;;;;5077614;28;20383;-78
2021/11/12 10:55:35;;;;;;;23.38;17.23;;;11.40;90.40;;;;;;5077183;28;20490;-77
2021/11/12 10:58:06;;;;;;;30.48;18.15;;;11.40;90.40;;;;;;5077647;28;20016;-77
2021/11/12 11:00:44;;;;;;;25.42;17.25;;;11.40;90.40;;;;;;5077279;28;20032;-78
2021/11/12 11:03:13;;;;;;;27.08;16.58;;;11.50;90.40;;;;;;5077692;28;20398;-77
2021/11/12 11:05:39;;;;;;;25.77;16.45;;;11.50;90.40;;;;;;5077544;28;20111;-78
2021/11/12 11:08:07;;;;;;;33.40;17.83;;;11.60;90.40;;;;;;5077153;28;20411;-77
2021/11/12 11:10:53;;;;;;;24.58;15.82;;;11.70;90.40;;;;;;5075993;28;20494;-78
2021/11/12 11:13:24;;;;;;;25.35;15.40;;;11.70;90.40;;;;;;5076893;28;20116;-78
2021/11/12 11:15:56;;;;;;;27.42;16.35;;;11.80;90.20;;;;;;5077460;28;20493;-78
2021/11/12 11:18:52;;;;;;;25.87;16.37;;;11.80;90.20;;;;;;5077352;28;20100;-77
2021/11/12 11:23:59;;;;;;;28.15;17.38;;;12.00;90.10;;;;;;5077060;28;20024;-77
2021/11/12 11:26:29;;;;;;;32.53;18.02;;;12.00;90.00;;;;;;5077093;28;20043;-77
2021/11/12 11:28:58;;;;;;;28.48;18.02;;;12.10;90.10;;;;;;5077223;28;20017;-78
2021/11/12 11:31:25;;;;;;;26.45;18.23;;;12.10;90.00;;;;;;5077033;28;20035;-78
2021/11/12 11:33:52;;;;;;;30.60;17.83;;;12.10;90.00;;;;;;5076920;28;20082;-78
2021/11/12 11:36:28;;;;;;;24.38;15.75;;;12.20;90.30;;;;;;5076808;28;20071;-77
2021/11/12 11:38:55;;;;;;;29.23;17.15;;;12.30;90.20;;;;;;5077148;28;20060;-77
2021/11/12 11:41:24;;;;;;;23.10;16.30;;;12.30;90.30;;;;;;5075434;28;20029;-77
2021/11/12 11:43:50;;;;;;;25.42;16.63;;;12.50;90.30;;;;;;5076760;28;20457;-77
2021/11/12 11:46:23;;;;;;;30.88;17.55;;;12.60;90.10;;;;;;5076985;28;20028;-77
2021/11/12 11:48:50;;;;;;;27.63;16.67;;;12.70;89.90;;;;;;5076808;28;20029;-78
2021/11/12 11:51:29;;;;;;;25.70;17.73;;;12.70;89.40;;;;;;5080717;28;20468;-77
2021/11/12 11:54:04;;;;;;;26.17;17.55;;;12.70;89.70;;;;;;5080481;28;20376;-77
2021/11/12 11:56:33;;;;;;;28.10;19.02;;;12.70;89.30;;;;;;5080734;28;20082;-77
2021/11/12 11:59:25;;;;;;;29.77;19.65;;;12.80;89.80;;;;;;5080434;28;20016;-78
2021/11/12 12:01:54;;;;;;;27.65;18.85;;;12.90;89.80;;;;;;5080358;28;20074;-78
2021/11/12 12:04:20;;;;;;;26.55;18.05;;;13.00;89.50;;;;;;5080410;28;20029;-78
2021/11/12 12:07:01;;;;;;;29.00;17.65;;;13.20;89.50;;;;;;5080263;28;20039;-77
2021/11/12 12:09:48;;;;;;;27.33;18.05;;;13.30;89.50;;;;;;5080010;28;20024;-77
2021/11/12 12:12:35;;;;;;;30.45;16.88;;;13.40;89.10;;;;;;5068276;28;20063;-77
2021/11/12 12:15:03;;;;;;;29.02;16.63;;;13.40;89.00;;;;;;5080232;28;20070;-77
2021/11/12 12:17:32;;;;;;;26.52;16.92;;;13.60;88.90;;;;;;5080273;28;20063;-78
2021/11/12 12:20:17;;;;;;;23.13;15.80;;;13.70;88.50;;;;;;5080204;28;20025;-77
2021/11/12 13:22:50;;;;;;;30.38;17.83;;;13.50;90.30;;;;;;5078946;28;20025;-78
2021/11/12 13:25:42;;;;;;;25.38;17.10;;;13.50;90.60;;;;;;5078895;28;20140;-78
2021/11/12 13:28:29;;;;;;;29.27;17.17;;;13.50;90.60;;;;;;5078773;28;20032;-77
2021/11/12 13:31:03;;;;;;;25.67;16.75;;;13.50;90.60;;;;;;5078749;28;20430;-77
2021/11/12 13:33:34;;;;;;;29.30;15.85;;;13.60;90.60;;;;;;5078758;28;20016;-78
2021/11/12 13:36:23;;;;;;;24.20;14.98;;;13.60;90.70;;;;;;5078479;28;20478;-77
2021/11/12 13:39:21;;;;;;;22.58;14.45;;;13.60;90.80;;;;;;5078619;28;20032;-77
2021/11/12 13:41:54;;;;;;;21.25;13.55;;;13.70;91.20;;;;;;5077946;28;20074;-78
2021/11/12 13:44:25;;;;;;;19.30;12.85;;;13.80;90.90;;;;;;5078365;28;20021;-78
2021/11/12 13:47:00;;;;;;;19.67;11.60;;;13.80;91.10;;;;;;5078510;28;20031;-78
2021/11/12 13:49:32;;;;;;;17.42;10.13;;;13.90;91.00;;;;;;5078590;28;20476;-78
2021/11/12 13:52:08;;;;;;;14.52;9.60;;;13.80;90.90;;;;;;5076887;28;20044;-78
2021/11/12 13:54:47;;;;;;;15.18;9.05;;;13.90;91.00;;;;;;5076639;28;20502;-78
2021/11/12 13:57:21;;;;;;;14.10;7.97;;;13.90;91.10;;;;;;5076877;28;20502;-78
2021/11/12 13:59:59;;;;;;;15.68;8.85;;;13.90;91.10;;;;;;5078382;28;20113;-78
2021/11/12 14:02:27;;;;;;;13.23;8.15;;;13.90;90.90;;;;;;5077031;28;20056;-78
2021/11/12 14:04:53;;;;;;;11.57;7.60;;;13.90;90.80;;;;;;5078158;28;20028;-78
2021/11/12 14:07:24;;;;;;;14.75;8.40;;;13.80;90.70;;;;;;5078270;28;20178;-77
2021/11/12 14:10:09;;;;;;;18.58;11.02;;;13.80;91.20;;;;;;5077702;28;20017;-78
2021/11/12 14:12:36;;;;;;;19.05;10.70;;;13.80;91.10;;;;;;5076614;28;20028;-78
2021/11/12 14:15:16;;;;;;;40.53;19.30;;;13.90;91.20;;;;;;5077860;28;20076;-78
2021/11/12 14:17:56;;;;;;;62.97;28.17;;;13.90;91.10;;;;;;5077973;28;20115;-78
2021/11/12 14:23:14;;;;;;;67.05;27.48;;;14.00;91.10;;;;;;5078187;28;20039;-78
2021/11/12 14:31:20;;;;;;;;;;;14.00;91.00;;;;;;5078066;28;20024;-78
2021/11/12 14:36:58;;;;;;;37.25;18.95;;;14.10;90.90;;;;;;5067023;28;20048;-78
2021/11/12 14:39:35;;;;;;;22.58;12.27;;;14.10;91.00;;;;;;5077216;28;20065;-78
2021/11/12 14:43:03;;;;;;;27.08;14.10;;;14.00;91.10;;;;;;5077659;28;20032;-78
2021/11/12 14:45:14;;;;;;;21.02;11.52;;;14.00;91.10;;;;;;5070103;28;20040;-77
2021/11/12 14:47:56;;;;;;;12.98;8.32;;;14.10;91.10;;;;;;5077413;28;20062;-77
2021/11/12 14:50:37;;;;;;;23.85;12.13;;;14.10;91.10;;;;;;5077330;28;20020;-78
2021/11/12 14:53:07;;;;;;;16.42;10.40;;;14.00;91.00;;;;;;5077577;28;20032;-77
2021/11/12 14:55:34;;;;;;;15.10;9.93;;;14.00;91.00;;;;;;5077122;28;20072;-77
2021/11/12 14:58:00;;;;;;;12.95;6.72;;;14.00;91.10;;;;;;5077566;28;20028;-77
2021/11/12 15:00:27;;;;;;;14.35;6.15;;;14.00;91.30;;;;;;5077373;28;20020;-77
2021/11/12 15:02:53;;;;;;;12.60;6.13;;;14.00;91.10;;;;;;5077421;28;20021;-78
2021/11/12 15:05:21;;;;;;;13.20;5.47;;;14.00;91.10;;;;;;5075971;28;20028;-78
2021/11/12 15:07:56;;;;;;;12.90;5.55;;;14.00;91.20;;;;;;5077393;28;20031;-78
2021/11/12 15:10:28;;;;;;;15.45;5.25;;;14.00;91.10;;;;;;5076865;28;20035;-78
2021/11/12 15:12:54;;;;;;;13.52;4.97;;;14.00;91.00;;;;;;5077478;28;20056;-78
2021/11/12 15:15:21;;;;;;;15.35;5.05;;;14.00;90.90;;;;;;5077200;28;20025;-78
2021/11/12 15:17:50;;;;;;;15.43;6.00;;;14.00;91.00;;;;;;5077332;28;21155;-78
2021/11/12 15:20:17;;;;;;;15.38;5.50;;;14.00;91.00;;;;;;5077495;28;20087;-78
2021/11/12 15:28:11;;;;;;;21.00;6.05;;;14.00;91.10;;;;;;5081413;28;20031;-78
2021/11/12 15:31:06;;;;;;;16.90;4.93;;;13.90;91.10;;;;;;5081261;28;20031;-78
2021/11/12 15:33:24;;;;;;;19.77;5.43;;;13.90;90.90;;;;;;5080742;28;20048;-78
2021/11/12 15:35:51;;;;;;;14.25;5.05;;;13.90;90.80;;;;;;5080825;28;20471;-78
2021/11/12 15:38:22;;;;;;;18.65;6.07;;;13.90;90.80;;;;;;5081616;28;20032;-78
2021/11/12 15:40:58;;;;;;;14.55;4.78;;;13.90;90.90;;;;;;5079204;28;20028;-78
2021/11/12 15:46:03;;;;;;;13.38;4.82;;;13.90;91.00;;;;;;5081033;28;20032;-78
2021/11/12 15:48:34;;;;;;;19.58;5.32;;;13.90;90.90;;;;;;5080853;28;20437;-78
2021/11/12 15:54:10;;;;;;;16.55;5.22;;;13.80;90.80;;;;;;5080430;28;20535;-78
2021/11/12 15:57:41;;;;;;;20.52;6.00;;;13.80;90.70;;;;;;5079358;28;20024;-78
2021/11/12 16:12:54;;;;;;;32.15;11.15;;;13.60;90.20;;;;;;5080341;28;20082;-78
2021/11/12 16:25:37;;;;;;;23.48;7.07;;;13.50;90.30;;;;;;5079742;28;20032;-79
2021/11/12 16:28:06;;;;;;;23.23;7.60;;;13.50;90.30;;;;;;5079900;28;20067;-78
2021/11/12 16:30:35;;;;;;;54.03;17.42;;;13.40;90.30;;;;;;5080037;28;20021;-78
2021/11/12 16:33:03;;;;;;;60.75;27.48;;;13.40;90.10;;;;;;5079693;28;20024;-78
2021/11/12 16:35:33;;;;;;;61.05;27.80;;;13.40;90.00;;;;;;5079294;28;20040;-78
2021/11/12 16:38:10;;;;;;;71.90;31.67;;;13.30;89.60;;;;;;5079188;28;20056;-78
2021/11/12 16:40:46;;;;;;;69.20;31.90;;;13.30;89.50;;;;;;5079586;28;20036;-78
2021/11/12 16:43:21;;;;;;;61.95;27.75;;;13.30;89.20;;;;;;5078370;28;20027;-78
2021/11/12 16:48:28;;;;;;;159.80;72.00;;;13.20;89.00;;;;;;5079638;28;20111;-78
2021/11/12 16:56:12;;;;;;;107.78;51.30;;;13.10;88.70;;;;;;5079318;28;20024;-78
2021/11/12 16:58:55;;;;;;;114.63;51.80;;;13.10;88.60;;;;;;5079269;28;20024;-78
2021/11/12 17:46:45;;;;;;;29.65;13.65;;;12.90;90.70;;;;;;5078662;28;20433;-79
2021/11/12 18:05:22;;;;;;;35.17;11.35;;;12.80;91.70;;;;;;5078101;28;20035;-78
2021/11/12 21:48:41;;;;;;;36.25;7.35;;;12.50;90.70;;;;;;5078505;28;20043;-79
2021/11/12 21:51:10;;;;;;;39.95;9.00;;;12.60;90.50;;;;;;5078352;28;20019;-79
2021/11/12 21:53:36;;;;;;;30.45;8.55;;;12.60;90.60;;;;;;5078354;28;20044;-78
2021/11/12 21:56:04;;;;;;;38.83;7.28;;;12.60;90.50;;;;;;5078458;28;20031;-79
2021/11/12 21:58:31;;;;;;;36.05;7.57;;;12.60;90.60;;;;;;5078357;28;20016;-78
2021/11/12 22:00:59;;;;;;;39.88;8.48;;;12.60;90.50;;;;;;5078364;28;20035;-78
2021/11/12 22:03:27;;;;;;;43.55;9.15;;;12.60;90.50;;;;;;5078440;28;20411;-78
2021/11/12 22:05:54;;;;;;;36.05;7.07;;;12.60;90.60;;;;;;5078307;28;20027;-78
2021/11/12 22:08:20;;;;;;;40.78;7.20;;;12.60;90.50;;;;;;5077838;28;20027;-78
2021/11/12 22:10:46;;;;;;;34.85;7.80;;;12.60;90.50;;;;;;5077842;28;20029;-78
2021/11/12 22:13:12;;;;;;;41.20;7.10;;;12.60;90.50;;;;;;5077998;28;20021;-78
2021/11/12 22:15:40;;;;;;;39.15;7.88;;;12.60;90.50;;;;;;5078155;28;20103;-78
2021/11/12 22:18:07;;;;;;;33.25;7.55;;;12.60;90.50;;;;;;5076558;28;20025;-78
2021/11/12 22:20:34;;;;;;;39.47;7.65;;;12.50;90.50;;;;;;5078200;28;20033;-78
2021/11/12 22:23:00;;;;;;;50.05;7.68;;;12.60;90.50;;;;;;5078054;28;20020;-78
2021/11/12 22:25:26;;;;;;;33.03;7.97;;;12.50;90.40;;;;;;5077681;28;20029;-78
2021/11/12 22:27:52;;;;;;;38.70;8.95;;;12.50;90.50;;;;;;5077607;28;20107;-78
2021/11/12 22:30:18;;;;;;;38.88;8.38;;;12.60;90.60;;;;;;5077942;28;20114;-78
2021/11/12 22:32:44;;;;;;;42.40;8.10;;;12.50;90.50;;;;;;5077555;28;20017;-78
2021/11/12 22:35:11;;;;;;;36.92;7.40;;;12.60;90.60;;;;;;5076913;28;20022;-78
2021/11/12 22:37:37;;;;;;;37.67;9.43;;;12.60;90.50;;;;;;5077621;28;20056;-78
2021/11/12 22:40:04;;;;;;;38.17;7.85;;;12.60;90.50;;;;;;5077355;28;20062;-78
2021/11/12 22:42:30;;;;;;;33.20;7.43;;;12.60;90.60;;;;;;5076129;28;20033;-78
2021/11/12 22:44:57;;;;;;;40.22;7.13;;;12.60;90.50;;;;;;5077666;28;20061;-78
2021/11/12 22:47:22;;;;;;;34.70;7.03;;;12.50;90.50;;;;;;5077440;28;20028;-78
2021/11/12 22:49:48;;;;;;;35.38;6.45;;;12.60;90.60;;;;;;5077508;28;20476;-79
2021/11/12 22:52:14;;;;;;;37.90;7.75;;;12.60;90.70;;;;;;5077359;28;20021;-78
2021/11/12 22:54:46;;;;;;;36.45;6.50;;;12.60;90.80;;;;;;5077311;28;20029;-78
2021/11/12 22:57:13;;;;;;;35.05;6.93;;;12.60;90.70;;;;;;5077309;28;20376;-78
2021/11/12 22:59:39;;;;;;;35.65;6.50;;;12.60;90.70;;;;;;5077431;28;20451;-78
2021/11/12 23:02:05;;;;;;;33.75;6.20;;;12.60;90.70;;;;;;5077427;28;20067;-78